createdAt,value
2019-05-20T00:02:39.917Z,15.84
2019-05-20T00:05:14.288Z,15.74
2019-05-20T00:07:48.591Z,15.73
2019-05-20T00:10:22.399Z,15.64
2019-05-20T00:13:05.291Z,15.70
2019-05-20T00:15:53.994Z,15.64
2019-05-20T00:18:36.960Z,15.62
2019-05-20T00:21:26.006Z,15.58
2019-05-20T00:24:08.150Z,15.50
2019-05-20T00:26:41.526Z,15.42
2019-05-20T00:29:15.980Z,15.37
2019-05-20T00:32:04.551Z,15.42
2019-05-20T00:34:52.936Z,15.36
2019-05-20T00:37:26.169Z,15.28
2019-05-20T00:39:59.546Z,15.23
2019-05-20T00:42:33.251Z,15.19
2019-05-20T00:45:06.821Z,15.19
2019-05-20T00:47:40.624Z,15.15
2019-05-20T00:50:14.715Z,15.14
2019-05-20T00:52:48.430Z,15.12
2019-05-20T00:55:33.113Z,15.13
2019-05-20T00:58:15.438Z,15.04
2019-05-20T01:00:49.463Z,14.97
2019-05-20T01:03:31.883Z,15.01
2019-05-20T01:06:05.241Z,14.94
2019-05-20T01:08:38.462Z,14.82
2019-05-20T01:11:11.648Z,14.79
2019-05-20T01:13:54.081Z,14.83
2019-05-20T01:16:36.892Z,14.73
2019-05-20T01:19:19.198Z,14.79
2019-05-20T01:21:52.622Z,14.76
2019-05-20T01:24:25.703Z,14.71
2019-05-20T01:26:59.445Z,14.67
2019-05-20T01:29:33.278Z,14.61
2019-05-20T01:32:06.900Z,14.53
2019-05-20T01:34:40.231Z,14.43
2019-05-20T01:37:13.802Z,14.33
2019-05-20T01:39:47.758Z,14.28
2019-05-20T01:42:21.277Z,14.33
2019-05-20T01:44:55.315Z,14.32
2019-05-20T01:47:29.619Z,14.29
2019-05-20T01:50:11.610Z,14.29
2019-05-20T01:52:47.052Z,14.20
2019-05-20T01:55:20.690Z,14.19
2019-05-20T01:57:54.297Z,14.23
2019-05-20T02:00:28.377Z,14.28
2019-05-20T02:03:10.815Z,14.24
2019-05-20T02:05:44.108Z,14.23
2019-05-20T02:08:18.075Z,14.21
2019-05-20T02:11:06.893Z,14.32
2019-05-20T02:13:56.155Z,14.24
2019-05-20T02:16:43.987Z,14.13
2019-05-20T02:19:19.271Z,13.98
2019-05-20T02:22:01.185Z,14.05
2019-05-20T02:24:36.903Z,14.03
2019-05-20T02:27:19.980Z,14.08
2019-05-20T02:30:02.665Z,14.13
2019-05-20T02:32:45.130Z,14.10
2019-05-20T02:35:18.904Z,14.01
2019-05-20T02:38:01.610Z,13.98
2019-05-20T02:40:34.866Z,13.90
2019-05-20T02:43:08.157Z,13.90
2019-05-20T02:45:42.188Z,13.88
2019-05-20T02:48:15.741Z,13.82
2019-05-20T02:50:49.103Z,13.72
2019-05-20T02:53:23.205Z,13.61
2019-05-20T02:55:57.121Z,13.55
2019-05-20T02:58:31.508Z,13.54
2019-05-20T03:01:05.036Z,13.52
2019-05-20T03:03:39.444Z,13.46
2019-05-20T03:06:28.005Z,13.51
2019-05-20T03:09:01.521Z,13.45
2019-05-20T03:11:35.014Z,13.39
2019-05-20T03:14:09.739Z,13.38
2019-05-20T03:16:43.011Z,13.38
2019-05-20T03:19:25.885Z,13.37
2019-05-20T03:21:59.320Z,13.28
2019-05-20T03:24:41.355Z,13.35
2019-05-20T03:27:15.347Z,13.30
2019-05-20T03:30:05.817Z,13.32
2019-05-20T03:32:48.565Z,13.30
2019-05-20T03:35:31.905Z,13.33
2019-05-20T03:38:05.436Z,13.30
2019-05-20T03:40:47.992Z,13.36
2019-05-20T03:43:30.509Z,13.38
2019-05-20T03:46:03.624Z,13.36
2019-05-20T03:48:37.170Z,13.36
2019-05-20T03:51:11.821Z,13.34
2019-05-20T03:53:44.639Z,13.36
2019-05-20T03:56:18.502Z,13.38
2019-05-20T03:58:51.025Z,13.36
2019-05-20T04:01:24.028Z,13.29
2019-05-20T04:03:57.418Z,13.34
2019-05-20T04:06:31.444Z,13.32
2019-05-20T04:09:14.773Z,13.34
2019-05-20T04:11:47.972Z,13.31
2019-05-20T04:14:21.610Z,13.37
2019-05-20T04:16:54.549Z,13.40
2019-05-20T04:19:36.706Z,13.47
2019-05-20T04:22:10.537Z,13.40
2019-05-20T04:24:44.200Z,13.45
2019-05-20T04:27:17.899Z,13.47
2019-05-20T04:29:52.011Z,13.44
2019-05-20T04:32:35.410Z,13.53
2019-05-20T04:35:21.280Z,13.47
2019-05-20T04:37:44.369Z,13.51
2019-05-20T04:40:18.078Z,13.57
2019-05-20T04:42:52.713Z,13.59
2019-05-20T04:45:26.442Z,13.63
2019-05-20T04:48:01.622Z,13.68
2019-05-20T04:50:35.411Z,13.67
2019-05-20T04:53:08.646Z,13.64
2019-05-20T04:55:42.161Z,13.75
2019-05-20T04:58:16.043Z,13.79
2019-05-20T05:00:54.324Z,13.92
2019-05-20T05:03:27.810Z,13.91
2019-05-20T05:06:01.129Z,13.96
2019-05-20T05:08:43.584Z,14.02
2019-05-20T05:11:26.445Z,14.01
2019-05-20T05:14:09.235Z,14.03
2019-05-20T05:16:52.066Z,14.07
2019-05-20T05:19:24.551Z,14.06
2019-05-20T05:21:57.927Z,14.01
2019-05-20T05:24:42.976Z,14.13
2019-05-20T05:27:16.520Z,14.11
2019-05-20T05:29:50.696Z,14.07
2019-05-20T05:32:42.753Z,14.12
2019-05-20T05:35:16.748Z,14.16
2019-05-20T05:37:50.137Z,14.10
2019-05-20T05:40:26.799Z,14.17
2019-05-20T05:43:00.018Z,14.15
2019-05-20T05:45:34.545Z,14.15
2019-05-20T05:48:16.894Z,14.19
2019-05-20T05:50:50.431Z,14.17
2019-05-20T05:53:23.708Z,14.13
2019-05-20T05:55:57.241Z,14.23
2019-05-20T05:58:31.297Z,14.28
2019-05-20T06:01:05.246Z,14.25
2019-05-20T06:03:48.268Z,14.39
2019-05-20T06:06:30.741Z,14.43
2019-05-20T06:09:18.097Z,14.42
2019-05-20T06:12:00.065Z,14.48
2019-05-20T06:14:33.466Z,14.42
2019-05-20T06:17:06.969Z,14.35
2019-05-20T06:19:40.786Z,14.34
2019-05-20T06:22:14.648Z,14.33
2019-05-20T06:24:47.999Z,14.41
2019-05-20T06:27:21.201Z,14.38
2019-05-20T06:29:54.755Z,14.37
2019-05-20T06:32:28.492Z,14.28
2019-05-20T06:35:02.498Z,14.17
2019-05-20T06:37:38.415Z,14.22
2019-05-20T06:40:24.945Z,14.29
2019-05-20T06:42:58.753Z,14.32
2019-05-20T06:45:40.900Z,14.32
2019-05-20T06:48:14.729Z,14.34
2019-05-20T06:50:48.323Z,14.33
2019-05-20T06:53:23.088Z,14.37
2019-05-20T06:55:56.655Z,14.25
2019-05-20T06:58:30.704Z,14.28
2019-05-20T07:01:04.009Z,14.26
2019-05-20T07:03:36.467Z,14.33
2019-05-20T07:06:10.003Z,14.36
2019-05-20T07:08:43.798Z,14.50
2019-05-20T07:11:17.013Z,14.65
2019-05-20T07:13:50.532Z,14.72
2019-05-20T07:16:24.104Z,14.83
2019-05-20T07:18:57.489Z,14.84
2019-05-20T07:21:31.415Z,14.92
2019-05-20T07:24:05.696Z,14.96
2019-05-20T07:26:51.049Z,14.89
2019-05-20T07:29:24.599Z,14.91
2019-05-20T07:32:07.502Z,15.16
2019-05-20T07:34:53.078Z,15.19
2019-05-20T07:37:26.353Z,15.33
2019-05-20T07:40:09.870Z,15.57
2019-05-20T07:42:43.430Z,15.61
2019-05-20T07:45:17.125Z,15.75
2019-05-20T07:47:50.947Z,15.76
2019-05-20T07:50:24.813Z,15.65
2019-05-20T07:53:12.377Z,15.67
2019-05-20T07:55:58.496Z,15.71
2019-05-20T07:58:34.358Z,16.01
2019-05-20T08:01:08.496Z,16.01
2019-05-20T08:03:42.057Z,16.18
2019-05-20T08:06:16.033Z,16.50
2019-05-20T08:08:49.228Z,16.93
2019-05-20T08:11:22.471Z,16.93
2019-05-20T08:13:56.811Z,17.07
2019-05-20T08:16:30.271Z,17.25
2019-05-20T08:19:03.312Z,17.03
2019-05-20T08:21:36.630Z,17.03
2019-05-20T08:24:18.810Z,17.00
2019-05-20T08:26:52.464Z,17.05
2019-05-20T08:29:31.125Z,17.07
2019-05-20T08:32:10.744Z,17.20
2019-05-20T08:34:51.730Z,16.96
2019-05-20T08:37:44.821Z,16.85
2019-05-20T08:40:12.290Z,16.84
2019-05-20T08:43:01.138Z,17.02
2019-05-20T08:45:39.718Z,17.02
2019-05-20T08:48:18.667Z,17.18
2019-05-20T08:50:57.986Z,17.18
2019-05-20T08:53:37.660Z,17.36
2019-05-20T08:56:16.630Z,17.36
2019-05-20T08:58:55.478Z,17.09
2019-05-20T09:01:32.284Z,17.09
2019-05-20T09:04:21.270Z,17.01
2019-05-20T09:07:09.954Z,17.11
2019-05-20T09:09:48.462Z,17.17
2019-05-20T09:12:27.528Z,17.28
2019-05-20T09:15:06.000Z,17.53
2019-05-20T09:17:45.157Z,17.78
2019-05-20T09:20:33.016Z,17.97
2019-05-20T09:23:24.670Z,18.01
2019-05-20T09:26:04.504Z,18.05
2019-05-20T09:28:45.457Z,18.01
2019-05-20T09:31:23.597Z,18.19
2019-05-20T09:34:03.781Z,18.36
2019-05-20T09:36:51.829Z,18.62
2019-05-20T09:39:29.825Z,18.74
2019-05-20T09:42:07.756Z,18.87
2019-05-20T09:44:46.657Z,18.99
2019-05-20T09:47:25.851Z,19.27
2019-05-20T09:50:06.716Z,19.32
2019-05-20T09:52:45.366Z,19.39
2019-05-20T09:55:35.099Z,19.50
2019-05-20T09:58:14.209Z,19.60
2019-05-20T10:00:53.314Z,19.70
2019-05-20T10:03:42.129Z,19.91
2019-05-20T10:06:20.979Z,19.99
2019-05-20T10:08:59.497Z,19.96
2019-05-20T10:11:38.657Z,20.10
2019-05-20T10:14:18.713Z,20.30
2019-05-20T10:16:52.529Z,20.50
2019-05-20T10:19:41.509Z,20.72
2019-05-20T10:22:26.754Z,20.84
2019-05-20T10:25:10.361Z,21.09
2019-05-20T10:27:43.953Z,21.22
2019-05-20T10:30:17.717Z,21.37
2019-05-20T10:32:51.114Z,21.35
2019-05-20T10:35:25.140Z,21.33
2019-05-20T10:37:58.896Z,21.39
2019-05-20T10:40:32.081Z,21.54
2019-05-20T10:43:05.674Z,21.69
2019-05-20T10:45:38.974Z,21.88
2019-05-20T10:48:12.718Z,21.96
2019-05-20T10:50:45.955Z,22.16
2019-05-20T10:53:18.624Z,22.37
2019-05-20T10:55:52.449Z,22.39
2019-05-20T10:58:26.081Z,22.48
2019-05-20T11:01:03.692Z,22.54
2019-05-20T11:03:35.872Z,22.59
2019-05-20T11:06:09.158Z,22.69
2019-05-20T11:08:42.325Z,22.76
2019-05-20T11:11:25.029Z,23.02
2019-05-20T11:14:07.777Z,23.20
2019-05-20T11:16:41.958Z,23.14
2019-05-20T11:19:30.106Z,23.50
2019-05-20T11:22:03.309Z,23.54
2019-05-20T11:24:37.276Z,23.57
2019-05-20T11:27:10.748Z,23.49
2019-05-20T11:29:44.417Z,23.53
2019-05-20T11:32:18.313Z,23.68
2019-05-20T11:35:01.152Z,24.05
2019-05-20T11:37:44.303Z,24.30
2019-05-20T11:40:26.507Z,24.26
2019-05-20T11:43:00.286Z,24.32
2019-05-20T11:45:33.522Z,24.34
2019-05-20T11:48:08.142Z,24.34
2019-05-20T11:50:42.401Z,24.43
2019-05-20T11:53:15.350Z,24.52
2019-05-20T11:55:49.050Z,24.54
2019-05-20T11:58:22.375Z,24.30
2019-05-20T12:01:04.788Z,24.52
2019-05-20T12:03:49.559Z,24.65
2019-05-20T12:06:22.768Z,24.44
2019-05-20T12:08:55.949Z,24.50
2019-05-20T12:11:38.684Z,24.69
2019-05-20T12:14:21.221Z,24.91
2019-05-20T12:17:04.287Z,25.07
2019-05-20T12:19:46.389Z,24.82
2019-05-20T12:22:20.576Z,24.69
2019-05-20T12:24:54.090Z,24.69
2019-05-20T12:27:37.668Z,24.93
2019-05-20T12:30:11.367Z,25.01
2019-05-20T12:32:45.004Z,24.77
2019-05-20T12:35:28.561Z,24.58
2019-05-20T12:38:11.250Z,24.39
2019-05-20T12:40:53.776Z,24.33
2019-05-20T12:43:27.134Z,24.35
2019-05-20T12:46:00.425Z,24.50
2019-05-20T12:48:44.012Z,24.87
2019-05-20T12:51:26.972Z,25.12
2019-05-20T12:53:59.385Z,25.28
2019-05-20T12:56:32.762Z,25.49
2019-05-20T12:59:07.832Z,25.55
2019-05-20T13:01:56.187Z,25.75
2019-05-20T13:04:29.858Z,25.63
2019-05-20T13:07:03.754Z,25.31
2019-05-20T13:09:37.880Z,25.19
2019-05-20T13:12:11.395Z,25.26
2019-05-20T13:14:44.642Z,25.33
2019-05-20T13:17:18.325Z,25.26
2019-05-20T13:19:50.857Z,25.24
2019-05-20T13:22:33.106Z,25.46
2019-05-20T13:25:07.007Z,25.47
2019-05-20T13:27:40.692Z,25.57
2019-05-20T13:30:16.332Z,25.61
2019-05-20T13:33:04.646Z,25.70
2019-05-20T13:35:38.511Z,25.67
2019-05-20T13:38:20.828Z,25.80
2019-05-20T13:40:54.414Z,25.70
2019-05-20T13:43:28.605Z,25.62
2019-05-20T13:46:11.097Z,25.56
2019-05-20T13:48:44.960Z,25.48
2019-05-20T13:51:27.665Z,25.45
2019-05-20T13:54:11.428Z,25.55
2019-05-20T13:56:44.947Z,25.52
2019-05-20T13:59:18.397Z,25.64
2019-05-20T14:01:51.759Z,25.69
2019-05-20T14:04:25.391Z,25.40
2019-05-20T14:06:58.730Z,25.44
2019-05-20T14:09:46.757Z,25.59
2019-05-20T14:12:20.841Z,25.32
2019-05-20T14:14:54.426Z,25.41
2019-05-20T14:17:39.369Z,25.56
2019-05-20T14:20:13.197Z,25.68
2019-05-20T14:22:47.563Z,25.88
2019-05-20T14:25:21.420Z,26.07
2019-05-20T14:27:54.481Z,26.09
2019-05-20T14:30:37.448Z,26.19
2019-05-20T14:33:11.309Z,26.19
2019-05-20T14:35:45.585Z,26.46
2019-05-20T14:38:19.504Z,26.65
2019-05-20T14:41:02.100Z,26.79
2019-05-20T14:43:36.358Z,26.98
2019-05-20T14:46:09.941Z,26.93
2019-05-20T14:48:43.523Z,26.85
2019-05-20T14:51:17.579Z,26.67
2019-05-20T14:54:01.362Z,26.78
2019-05-20T14:56:47.198Z,25.95
2019-05-20T14:59:29.309Z,26.05
2019-05-20T15:02:02.940Z,25.99
2019-05-20T15:04:36.134Z,25.57
2019-05-20T15:07:09.441Z,25.26
2019-05-20T15:09:43.983Z,25.18
2019-05-20T15:12:26.370Z,25.25
2019-05-20T15:14:59.289Z,25.25
2019-05-20T15:17:42.457Z,25.11
2019-05-20T15:20:15.433Z,24.96
2019-05-20T15:22:50.059Z,24.73
2019-05-20T15:25:32.593Z,24.61
2019-05-20T15:28:23.896Z,24.60
2019-05-20T15:31:06.551Z,24.91
2019-05-20T15:33:40.501Z,25.15
2019-05-20T15:36:25.348Z,25.58
2019-05-20T15:39:08.400Z,25.66
2019-05-20T15:41:53.151Z,25.49
2019-05-20T15:44:26.259Z,25.22
2019-05-20T15:47:00.378Z,25.07
2019-05-20T15:49:35.292Z,24.89
2019-05-20T15:52:09.477Z,24.58
2019-05-20T15:54:43.135Z,24.42
2019-05-20T15:57:15.605Z,24.45
2019-05-20T15:59:57.831Z,24.49
2019-05-20T16:02:31.483Z,24.40
2019-05-20T16:05:20.240Z,24.37
2019-05-20T16:08:09.396Z,24.33
2019-05-20T16:10:48.415Z,24.17
2019-05-20T16:13:23.101Z,23.80
2019-05-20T16:16:05.184Z,23.57
2019-05-20T16:18:38.599Z,23.54
2019-05-20T16:21:22.202Z,23.79
2019-05-20T16:24:04.935Z,23.92
2019-05-20T16:26:37.663Z,23.80
2019-05-20T16:29:11.169Z,23.89
2019-05-20T16:31:55.510Z,24.04
2019-05-20T16:34:42.155Z,24.11
2019-05-20T16:37:15.578Z,24.24
2019-05-20T16:39:49.736Z,24.38
2019-05-20T16:42:32.328Z,24.39
2019-05-20T16:45:11.308Z,24.53
2019-05-20T16:47:52.996Z,24.71
2019-05-20T16:50:26.616Z,24.67
2019-05-20T16:52:58.686Z,24.41
2019-05-20T16:55:32.481Z,24.12
2019-05-20T16:58:06.573Z,24.01
2019-05-20T17:00:51.290Z,23.91
2019-05-20T17:03:24.872Z,24.05
2019-05-20T17:05:58.157Z,24.50
2019-05-20T17:08:31.524Z,24.51
2019-05-20T17:11:05.027Z,24.40
2019-05-20T17:13:50.201Z,24.13
2019-05-20T17:16:23.953Z,24.04
2019-05-20T17:18:56.520Z,24.14
2019-05-20T17:21:30.138Z,24.00
2019-05-20T17:24:05.295Z,23.92
2019-05-20T17:26:40.764Z,23.79
2019-05-20T17:29:12.687Z,23.79
2019-05-20T17:31:46.414Z,23.73
2019-05-20T17:34:19.840Z,23.54
2019-05-20T17:36:52.755Z,23.52
2019-05-20T17:39:35.829Z,23.38
2019-05-20T17:42:09.497Z,23.13
2019-05-20T17:44:42.550Z,22.84
2019-05-20T17:47:25.246Z,22.89
2019-05-20T17:50:11.445Z,23.05
2019-05-20T17:52:55.206Z,22.99
2019-05-20T17:55:29.457Z,22.66
2019-05-20T17:58:03.391Z,22.68
2019-05-20T18:00:37.468Z,22.65
2019-05-20T18:03:11.303Z,22.74
2019-05-20T18:05:57.254Z,22.76
2019-05-20T18:08:33.016Z,22.67
2019-05-20T18:11:19.880Z,22.58
2019-05-20T18:13:53.470Z,22.42
2019-05-20T18:16:26.723Z,22.38
2019-05-20T18:19:00.936Z,22.24
2019-05-20T18:21:43.599Z,22.14
2019-05-20T18:24:15.818Z,22.03
2019-05-20T18:26:59.414Z,22.01
2019-05-20T18:29:34.102Z,21.85
2019-05-20T18:32:16.498Z,21.85
2019-05-20T18:34:59.471Z,21.74
2019-05-20T18:37:46.816Z,21.62
2019-05-20T18:40:34.652Z,21.54
2019-05-20T18:43:24.753Z,21.37
2019-05-20T18:46:03.919Z,21.28
2019-05-20T18:48:40.834Z,21.29
2019-05-20T18:51:27.519Z,21.29
2019-05-20T18:54:09.336Z,21.25
2019-05-20T18:56:49.782Z,21.14
2019-05-20T18:59:27.636Z,21.14
2019-05-20T19:02:05.996Z,21.17
2019-05-20T19:04:57.992Z,21.13
2019-05-20T19:07:36.387Z,20.98
2019-05-20T19:10:24.160Z,20.97
2019-05-20T19:13:05.833Z,20.92
2019-05-20T19:15:44.321Z,20.86
2019-05-20T19:18:39.454Z,20.85
2019-05-20T19:21:17.883Z,20.67
2019-05-20T19:23:58.341Z,20.59
2019-05-20T19:26:38.808Z,20.55
2019-05-20T19:29:20.659Z,20.48
2019-05-20T19:32:01.858Z,20.45
2019-05-20T19:34:37.729Z,20.43
2019-05-20T19:37:17.928Z,20.38
2019-05-20T19:42:32.406Z,20.32
2019-05-20T19:45:21.023Z,20.39
2019-05-20T19:48:01.118Z,20.30
2019-05-20T19:50:39.048Z,20.26
2019-05-20T19:53:27.181Z,20.26
2019-05-20T19:56:05.811Z,20.21
2019-05-20T19:58:43.466Z,20.18
2019-05-20T20:01:33.264Z,20.19
2019-05-20T20:04:17.730Z,20.09
2019-05-20T20:06:59.812Z,20.06
2019-05-20T20:09:33.622Z,19.95
2019-05-20T20:12:07.397Z,19.95
2019-05-20T20:14:50.024Z,19.98
2019-05-20T20:17:23.475Z,19.83
2019-05-20T20:19:58.316Z,19.80
2019-05-20T20:22:31.943Z,19.77
2019-05-20T20:25:05.912Z,19.75
2019-05-20T20:27:39.570Z,19.77
2019-05-20T20:30:13.388Z,19.76
2019-05-20T20:32:47.600Z,19.72
2019-05-20T20:35:21.027Z,19.69
2019-05-20T20:38:04.441Z,19.70
2019-05-20T20:40:41.974Z,19.66
2019-05-20T20:43:16.191Z,19.66
2019-05-20T20:45:58.261Z,19.69
2019-05-20T20:48:31.658Z,19.62
2019-05-20T20:51:04.966Z,19.63
2019-05-20T20:53:38.891Z,19.57
2019-05-20T20:56:24.656Z,19.59
2019-05-20T20:58:48.021Z,19.55
2019-05-20T21:01:21.591Z,19.53
2019-05-20T21:03:56.416Z,19.53
2019-05-20T21:06:29.866Z,19.53
2019-05-20T21:09:05.949Z,19.48
2019-05-20T21:11:39.780Z,19.43
2019-05-20T21:14:14.013Z,19.39
2019-05-20T21:16:47.625Z,19.39
2019-05-20T21:19:21.230Z,19.32
2019-05-20T21:21:54.446Z,19.27
2019-05-20T21:24:28.428Z,19.18
2019-05-20T21:27:01.611Z,19.12
2019-05-20T21:29:34.789Z,19.04
2019-05-20T21:32:17.739Z,18.99
2019-05-20T21:35:00.363Z,18.98
2019-05-20T21:37:42.775Z,18.96
2019-05-20T21:40:16.457Z,18.88
2019-05-20T21:42:50.051Z,18.89
2019-05-20T21:45:24.989Z,18.88
2019-05-20T21:47:58.695Z,18.84
2019-05-20T21:50:32.426Z,18.83
2019-05-20T21:53:05.953Z,18.82
2019-05-20T21:55:39.878Z,18.74
2019-05-20T21:58:13.026Z,18.66
2019-05-20T22:00:53.241Z,18.66
2019-05-20T22:03:27.977Z,18.69
2019-05-20T22:06:01.907Z,18.74
2019-05-20T22:08:35.271Z,18.72
2019-05-20T22:11:09.250Z,18.72
2019-05-20T22:13:43.067Z,18.72
2019-05-20T22:16:29.571Z,18.76
2019-05-20T22:19:09.837Z,18.66
2019-05-20T22:21:54.860Z,18.62
2019-05-20T22:24:28.110Z,18.59
2019-05-20T22:27:05.559Z,18.56
2019-05-20T22:29:48.429Z,18.58
2019-05-20T22:32:31.257Z,18.55
2019-05-20T22:35:13.426Z,18.55
2019-05-20T22:37:46.984Z,18.49
2019-05-20T22:40:20.274Z,18.47
2019-05-20T22:42:54.042Z,18.49
2019-05-20T22:45:27.282Z,18.47
2019-05-20T22:48:02.179Z,18.40
2019-05-20T22:50:44.460Z,18.36
2019-05-20T22:53:19.052Z,18.38
2019-05-20T22:55:54.029Z,18.33
2019-05-20T22:58:29.756Z,18.35
2019-05-20T23:01:03.379Z,18.37
2019-05-20T23:03:36.975Z,18.33
2019-05-20T23:06:11.471Z,18.30
2019-05-20T23:08:44.999Z,18.28
2019-05-20T23:11:27.693Z,18.30
2019-05-20T23:14:10.691Z,18.30
2019-05-20T23:16:43.908Z,18.26
2019-05-20T23:19:27.554Z,18.29
2019-05-20T23:22:11.281Z,18.20
2019-05-20T23:24:53.583Z,18.21
2019-05-20T23:27:28.300Z,18.08
2019-05-20T23:30:01.781Z,18.01
2019-05-20T23:32:38.199Z,18.00
2019-05-20T23:35:20.722Z,17.93
2019-05-20T23:38:05.735Z,17.91
2019-05-20T23:40:39.321Z,17.81
2019-05-20T23:43:12.889Z,17.71
2019-05-20T23:45:46.518Z,17.62
2019-05-20T23:48:19.713Z,17.53
2019-05-20T23:50:52.629Z,17.52
2019-05-20T23:53:35.026Z,17.48
2019-05-20T23:56:17.638Z,17.34
2019-05-20T23:58:51.230Z,17.18
